Time;durP1;ratioP1;P1;durP2;ratioP2;P2;SDS_P1;SDS_P2;PMS_P1;PMS_P2;Temp;Humidity;BMP_temperature;BMP_pressure;BME280_temperature;BME280_humidity;BME280_pressure;Samples;Min_cycle;Max_cycle;Signal;HPM_P1;HPM_P2
2021/08/08 00:01:45;;;;;;;11.05;2.70;;;;;;;17.28;70.38;100369.78;5096463;28;20495;-70
2021/08/08 00:04:13;;;;;;;9.25;2.80;;;;;;;17.21;71.08;100374.41;5095269;28;20483;-71
2021/08/08 00:06:40;;;;;;;13.48;2.95;;;;;;;17.41;70.94;100370.44;5095759;28;20063;-71
2021/08/08 00:09:08;;;;;;;11.52;2.42;;;;;;;17.23;71.02;100372.03;5096130;28;20055;-71
2021/08/08 00:11:36;;;;;;;10.60;2.58;;;;;;;17.42;70.62;100367.28;5096137;28;20052;-71
2021/08/08 00:14:04;;;;;;;8.13;2.30;;;;;;;17.29;70.71;100378.94;5096114;28;20047;-71
2021/08/08 00:16:31;;;;;;;12.13;2.72;;;;;;;17.16;71.34;100383.00;5055181;28;20048;-70
2021/08/08 00:18:58;;;;;;;10.88;2.53;;;;;;;17.14;71.42;100375.03;5075678;28;20049;-71
2021/08/08 00:21:26;;;;;;;8.07;2.45;;;;;;;17.41;70.55;100379.59;5075882;28;20594;-71
2021/08/08 00:23:53;;;;;;;11.32;2.63;;;;;;;17.34;70.63;100381.41;5075223;28;20060;-70
2021/08/08 00:26:21;;;;;;;10.68;2.90;;;;;;;17.22;71.00;100387.13;5061859;28;20062;-70
2021/08/08 00:28:49;;;;;;;12.40;2.72;;;;;;;17.22;71.33;100385.16;5095927;28;20410;-70
2021/08/08 00:31:22;;;;;;;15.40;2.92;;;;;;;17.17;71.25;100379.09;5077814;28;20048;-70
2021/08/08 00:33:53;;;;;;;16.63;2.95;;;;;;;16.99;72.46;100381.47;5077752;28;20048;-70
2021/08/08 00:36:21;;;;;;;11.10;2.20;;;;;;;16.99;72.36;100380.66;5077049;28;20055;-70
2021/08/08 00:38:52;;;;;;;13.98;2.67;;;;;;;17.11;71.66;100383.31;5077484;28;20055;-71
2021/08/08 00:41:19;;;;;;;12.60;2.97;;;;;;;17.18;71.45;100384.28;5058208;28;20059;-70
2021/08/08 00:43:47;;;;;;;12.85;2.97;;;;;;;17.18;71.49;100384.28;5057057;28;20037;-71
2021/08/08 00:46:14;;;;;;;8.40;3.17;;;;;;;16.98;72.13;100385.41;5059752;28;20052;-70
2021/08/08 00:48:43;;;;;;;10.20;2.80;;;;;;;17.03;72.30;100379.59;5073303;28;20518;-70
2021/08/08 00:51:14;;;;;;;13.20;2.78;;;;;;;16.92;72.47;100386.88;5057221;28;20407;-69
2021/08/08 00:53:46;;;;;;;16.15;2.80;;;;;;;16.86;72.94;100391.09;5069457;28;20052;-70
2021/08/08 00:56:15;;;;;;;13.23;2.90;;;;;;;16.91;72.71;100398.38;5076506;28;20625;-71
2021/08/08 00:58:43;;;;;;;14.60;3.85;;;;;;;16.77;73.17;100387.75;5077233;28;20044;-70
2021/08/08 01:01:14;;;;;;;12.63;2.78;;;;;;;16.70;73.83;100393.94;5077227;28;20052;-71
2021/08/08 01:03:43;;;;;;;11.60;3.05;;;;;;;16.79;73.43;100393.72;5095275;28;20529;-70
2021/08/08 01:06:32;;;;;;;10.93;3.05;;;;;;;16.81;73.61;100385.84;5075702;28;20052;-71
2021/08/08 01:09:02;;;;;;;9.38;2.70;;;;;;;16.70;73.80;100385.59;5044207;28;20056;-71
2021/08/08 01:11:34;;;;;;;10.65;2.65;;;;;;;16.88;73.48;100386.00;5077096;28;20048;-71
2021/08/08 01:14:02;;;;;;;11.00;2.80;;;;;;;16.86;73.64;100386.34;5092144;28;20055;-71
2021/08/08 01:16:33;;;;;;;13.65;3.35;;;;;;;16.74;74.41;100382.88;5044338;28;20059;-70
2021/08/08 01:19:03;;;;;;;15.27;3.40;;;;;;;16.85;73.90;100389.50;5076835;28;20075;-70
2021/08/08 01:21:32;;;;;;;12.30;3.03;;;;;;;16.56;74.90;100395.59;5077075;28;20051;-72
2021/08/08 01:24:04;;;;;;;10.57;3.17;;;;;;;16.41;75.87;100390.81;5076511;28;20039;-70
2021/08/08 01:26:32;;;;;;;16.83;3.55;;;;;;;16.65;75.06;100390.63;5076432;28;20659;-70
2021/08/08 01:29:02;;;;;;;12.20;3.05;;;;;;;16.58;75.29;100394.03;5044285;28;20055;-71
2021/08/08 01:31:30;;;;;;;10.52;3.00;;;;;;;16.53;75.51;100393.50;5060308;28;20059;-71
2021/08/08 01:33:57;;;;;;;14.80;2.88;;;;;;;16.40;76.11;100397.53;5076211;28;20051;-70
2021/08/08 01:36:25;;;;;;;12.20;2.90;;;;;;;16.42;75.97;100398.00;5058656;28;20055;-70
2021/08/08 01:39:03;;;;;;;10.88;2.85;;;;;;;16.64;75.47;100403.72;5094737;28;20060;-70
2021/08/08 01:41:37;;;;;;;11.90;2.97;;;;;;;16.63;75.27;100398.53;5076213;28;20403;-69
2021/08/08 01:44:05;;;;;;;17.58;3.67;;;;;;;16.68;75.26;100399.03;5039105;28;20515;-70
2021/08/08 01:46:37;;;;;;;12.40;3.53;;;;;;;16.68;75.10;100406.59;5039830;28;20079;-70
2021/08/08 01:49:14;;;;;;;10.32;3.03;;;;;;;16.65;75.19;100404.53;5072753;28;20060;-70
2021/08/08 01:51:42;;;;;;;10.57;2.65;;;;;;;16.73;74.70;100400.75;5076096;28;20051;-70
2021/08/08 01:54:12;;;;;;;11.55;2.58;;;;;;;16.38;76.21;100392.34;5075548;28;20064;-70
2021/08/08 01:56:40;;;;;;;19.27;3.17;;;;;;;16.61;75.64;100398.09;5058850;28;20060;-70
2021/08/08 01:59:09;;;;;;;14.70;3.47;;;;;;;16.49;75.79;100398.97;5058981;28;20044;-70
2021/08/08 02:01:38;;;;;;;8.38;2.85;;;;;;;16.66;75.09;100408.94;5069544;28;20041;-69
2021/08/08 02:04:24;;;;;;;12.55;3.15;;;;;;;16.72;75.12;100404.69;5067528;28;20052;-70
2021/08/08 02:07:02;;;;;;;12.63;2.78;;;;;;;16.50;75.46;100400.63;5075365;28;20067;-70
2021/08/08 02:09:31;;;;;;;16.83;2.75;;;;;;;16.71;75.13;100400.31;5058607;28;20082;-71
2021/08/08 02:11:59;;;;;;;11.02;3.08;;;;;;;16.66;75.03;100408.94;5075813;28;20056;-71
2021/08/08 02:14:29;;;;;;;13.45;3.00;;;;;;;16.53;75.41;100408.22;5075046;28;20051;-71
2021/08/08 02:17:00;;;;;;;10.65;2.85;;;;;;;16.54;75.53;100411.81;5075162;28;20095;-70
2021/08/08 02:19:29;;;;;;;14.23;2.53;;;;;;;16.48;75.65;100410.47;5075268;28;20056;-70
2021/08/08 02:22:00;;;;;;;8.73;2.83;;;;;;;16.65;75.26;100416.47;5058552;28;20056;-70
2021/08/08 02:24:34;;;;;;;14.65;3.13;;;;;;;16.63;75.20;100412.44;5057359;28;20151;-70
2021/08/08 02:27:12;;;;;;;13.27;3.05;;;;;;;16.66;74.99;100417.28;5075300;28;20052;-70
2021/08/08 02:29:44;;;;;;;16.40;3.00;;;;;;;16.48;75.33;100422.41;5059488;28;20055;-65
2021/08/08 02:32:14;;;;;;;10.88;2.95;;;;;;;16.56;75.84;100423.41;5074495;28;20209;-65
2021/08/08 02:34:43;;;;;;;15.95;3.85;;;;;;;16.53;75.96;100418.53;5074738;28;20048;-65
2021/08/08 02:37:11;;;;;;;12.85;3.15;;;;;;;16.52;76.04;100428.06;5075193;28;20067;-66
2021/08/08 02:39:41;;;;;;;16.85;3.67;;;;;;;16.54;75.82;100422.94;5074962;28;20048;-66
2021/08/08 02:42:09;;;;;;;17.92;3.03;;;;;;;16.57;75.71;100417.47;5075207;28;20054;-71
2021/08/08 02:44:39;;;;;;;12.82;3.00;;;;;;;16.37;76.30;100421.28;5058655;28;20052;-65
2021/08/08 02:47:09;;;;;;;21.70;3.70;;;;;;;16.39;76.06;100418.16;5075233;28;20047;-66
2021/08/08 02:49:37;;;;;;;9.43;2.80;;;;;;;16.40;76.31;100423.38;5093115;28;20158;-66
2021/08/08 02:52:06;;;;;;;17.17;3.10;;;;;;;16.58;76.08;100423.84;5074849;28;20054;-65
2021/08/08 02:54:34;;;;;;;13.57;2.90;;;;;;;16.56;75.40;100423.41;5074794;28;20048;-70
2021/08/08 02:57:02;;;;;;;15.10;3.45;;;;;;;16.37;75.97;100423.28;5058245;28;20051;-70
2021/08/08 02:59:29;;;;;;;12.07;3.00;;;;;;;16.46;76.39;100423.88;5074877;28;20059;-70
2021/08/08 03:01:57;;;;;;;15.18;3.58;;;;;;;16.47;75.94;100431.09;5075156;28;20445;-70
2021/08/08 03:04:26;;;;;;;11.25;2.88;;;;;;;16.41;76.17;100432.50;5074642;28;20103;-65
2021/08/08 03:06:54;;;;;;;18.42;3.33;;;;;;;16.22;76.62;100432.41;5074426;28;20514;-70
2021/08/08 03:09:22;;;;;;;15.65;3.72;;;;;;;16.31;76.87;100431.09;5058516;28;20406;-69
2021/08/08 03:11:49;;;;;;;15.43;3.35;;;;;;;16.41;76.96;100435.28;5076435;28;20055;-71
2021/08/08 03:14:19;;;;;;;16.05;3.92;;;;;;;16.43;76.30;100432.97;5077838;28;20056;-70
2021/08/08 03:16:49;;;;;;;15.45;3.97;;;;;;;16.52;76.71;100436.41;5062839;28;20046;-70
2021/08/08 03:19:20;;;;;;;15.75;4.07;;;;;;;16.43;76.03;100444.06;5078761;28;20568;-69
2021/08/08 03:21:49;;;;;;;18.20;3.85;;;;;;;16.33;76.52;100437.09;5078955;28;20055;-70
2021/08/08 03:24:16;;;;;;;15.57;3.90;;;;;;;16.30;76.24;100450.91;5078706;28;20048;-66
2021/08/08 03:26:44;;;;;;;16.35;3.65;;;;;;;16.33;76.51;100450.19;5078906;28;20048;-66
2021/08/08 03:29:12;;;;;;;18.77;3.40;;;;;;;16.47;76.40;100456.13;5078687;28;20055;-64
2021/08/08 03:31:42;;;;;;;11.23;3.37;;;;;;;16.10;76.78;100455.53;5078955;28;20594;-65
2021/08/08 03:34:11;;;;;;;13.82;4.38;;;;;;;16.04;77.34;100451.38;5077590;28;20812;-65
2021/08/08 03:36:38;;;;;;;12.98;3.33;;;;;;;16.12;76.99;100455.19;5078608;28;20056;-65
2021/08/08 03:39:06;;;;;;;17.02;3.67;;;;;;;16.21;77.19;100458.59;5078581;28;20064;-66
2021/08/08 03:41:35;;;;;;;17.02;4.53;;;;;;;16.15;77.10;100457.22;5078779;28;20056;-66
2021/08/08 03:44:02;;;;;;;17.98;3.90;;;;;;;16.04;77.46;100450.59;5040788;28;20067;-66
2021/08/08 03:46:30;;;;;;;19.70;4.25;;;;;;;16.14;77.33;100455.63;5085747;28;20066;-65
2021/08/08 03:48:58;;;;;;;16.23;3.95;;;;;;;15.98;77.59;100447.28;5078290;28;20044;-65
2021/08/08 03:51:26;;;;;;;17.83;3.47;;;;;;;15.92;78.21;100459.00;5096910;28;20052;-67
2021/08/08 03:53:54;;;;;;;22.42;4.38;;;;;;;15.88;78.75;100455.31;5078220;28;20050;-66
2021/08/08 03:56:22;;;;;;;16.17;3.63;;;;;;;15.96;78.41;100452.38;5061744;28;20044;-66
2021/08/08 03:58:50;;;;;;;17.70;4.20;;;;;;;15.82;78.34;100456.72;5057354;28;20049;-67
2021/08/08 04:01:18;;;;;;;15.82;4.32;;;;;;;15.79;78.02;100449.94;5058126;28;20056;-67
2021/08/08 04:03:46;;;;;;;18.42;5.20;;;;;;;15.86;78.19;100449.31;5043539;28;20044;-71
2021/08/08 04:06:13;;;;;;;14.75;3.90;;;;;;;15.87;77.83;100460.06;5061010;28;20055;-70
2021/08/08 04:08:41;;;;;;;18.60;4.47;;;;;;;16.02;77.37;100462.09;5077129;28;20395;-71
2021/08/08 04:11:12;;;;;;;21.15;4.85;;;;;;;15.91;77.64;100471.25;5077720;28;20059;-71
2021/08/08 04:13:41;;;;;;;12.32;3.88;;;;;;;15.86;78.58;100469.56;5076056;28;20514;-71
2021/08/08 04:16:09;;;;;;;22.58;4.55;;;;;;;15.74;78.40;100467.63;5077132;28;20048;-66
2021/08/08 04:18:36;;;;;;;17.45;4.70;;;;;;;15.70;78.61;100477.84;5096059;28;20063;-66
2021/08/08 04:21:04;;;;;;;25.77;4.40;;;;;;;15.93;78.20;100477.28;5061348;28;20044;-66
2021/08/08 04:23:32;;;;;;;15.80;4.03;;;;;;;15.86;77.92;100485.41;5060403;28;20048;-67
2021/08/08 04:25:59;;;;;;;17.60;4.00;;;;;;;15.84;79.50;100482.19;5077882;28;20067;-67
2021/08/08 04:28:27;;;;;;;17.30;4.40;;;;;;;15.95;77.85;100488.84;5095979;28;20071;-67
2021/08/08 04:30:54;;;;;;;16.70;4.07;;;;;;;15.71;77.99;100492.53;5077470;28;20051;-67
2021/08/08 04:33:22;;;;;;;15.68;4.13;;;;;;;15.57;78.29;100492.09;5043750;28;20056;-67
2021/08/08 04:35:49;;;;;;;17.27;4.15;;;;;;;15.57;78.00;100494.88;5095715;28;20044;-65
2021/08/08 04:38:19;;;;;;;25.33;3.92;;;;;;;15.76;77.91;100486.72;5077539;28;20071;-71
2021/08/08 04:40:46;;;;;;;14.10;3.45;;;;;;;15.64;77.35;100487.59;5077501;28;20047;-71
2021/08/08 04:43:14;;;;;;;21.27;4.22;;;;;;;15.62;76.82;100481.56;5057259;28;20054;-70
2021/08/08 04:45:47;;;;;;;13.13;3.58;;;;;;;15.78;76.69;100484.41;5057262;28;20071;-70
2021/08/08 04:48:15;;;;;;;15.23;4.40;;;;;;;15.81;76.23;100480.13;5057476;28;20064;-66
2021/08/08 04:50:43;;;;;;;14.55;3.17;;;;;;;15.87;76.01;100496.16;5040211;28;20053;-66
2021/08/08 04:53:15;;;;;;;19.40;4.00;;;;;;;15.87;75.61;100490.59;5058824;28;20048;-66
2021/08/08 04:55:44;;;;;;;14.77;3.30;;;;;;;15.93;76.34;100489.22;5077353;28;20052;-67
2021/08/08 04:58:11;;;;;;;16.58;4.20;;;;;;;15.89;76.51;100490.25;5060205;28;20594;-66
2021/08/08 05:00:39;;;;;;;15.55;4.45;;;;;;;15.96;75.61;100493.22;5076624;28;20063;-66
2021/08/08 05:03:06;;;;;;;14.30;3.78;;;;;;;16.07;74.89;100491.56;5060802;28;20052;-67
2021/08/08 05:05:35;;;;;;;15.20;3.95;;;;;;;16.06;74.20;100501.88;5059630;28;20048;-67
2021/08/08 05:08:03;;;;;;;15.23;3.75;;;;;;;16.03;74.78;100496.22;5076946;28;20047;-67
2021/08/08 05:10:32;;;;;;;17.90;3.90;;;;;;;16.03;74.89;100505.34;5075772;28;20721;-66
2021/08/08 05:12:59;;;;;;;17.55;3.90;;;;;;;15.92;74.92;100500.69;5088660;28;20044;-66
2021/08/08 05:15:27;;;;;;;15.68;4.10;;;;;;;15.79;75.07;100497.94;5073323;28;20052;-67
2021/08/08 05:17:57;;;;;;;17.00;4.60;;;;;;;15.84;74.91;100496.06;5073386;28;20056;-66
2021/08/08 05:20:24;;;;;;;15.32;3.40;;;;;;;15.85;75.34;100500.47;5076179;28;20048;-67
2021/08/08 05:22:52;;;;;;;17.60;4.07;;;;;;;16.13;74.18;100502.06;5076664;28;20051;-67
2021/08/08 05:25:20;;;;;;;17.70;3.90;;;;;;;16.02;74.45;100506.53;5076573;28;20048;-66
2021/08/08 05:27:47;;;;;;;15.95;3.95;;;;;;;15.84;74.61;100505.22;5076583;28;20059;-66
2021/08/08 05:30:16;;;;;;;15.07;4.25;;;;;;;16.16;73.80;100506.09;5075732;28;20048;-66
2021/08/08 05:32:43;;;;;;;13.82;3.80;;;;;;;16.08;73.67;100505.09;5076895;28;20412;-66
2021/08/08 05:35:11;;;;;;;17.25;4.00;;;;;;;16.28;73.39;100503.25;5076620;28;20059;-66
2021/08/08 05:37:39;;;;;;;13.52;3.60;;;;;;;16.42;72.80;100506.41;5059046;28;20059;-66
2021/08/08 05:40:07;;;;;;;14.75;4.13;;;;;;;16.45;73.33;100505.69;5076298;28;20058;-66
2021/08/08 05:42:49;;;;;;;16.83;3.42;;;;;;;16.43;73.16;100508.84;5076352;28;20061;-66
2021/08/08 05:45:19;;;;;;;14.68;3.60;;;;;;;16.42;73.60;100509.97;5094554;28;20055;-66
2021/08/08 05:47:47;;;;;;;13.35;3.63;;;;;;;16.31;73.11;100508.91;5076059;28;20379;-66
2021/08/08 05:50:18;;;;;;;16.35;3.88;;;;;;;16.42;72.92;100507.19;5060038;28;20048;-71
2021/08/08 05:52:50;;;;;;;16.10;3.45;;;;;;;16.51;72.52;100521.00;5059722;28;20411;-71
2021/08/08 05:55:18;;;;;;;19.23;3.85;;;;;;;16.49;73.19;100512.19;5076175;28;20552;-71
2021/08/08 05:57:46;;;;;;;22.60;4.18;;;;;;;16.47;72.80;100517.31;5075431;28;20047;-71
2021/08/08 06:00:15;;;;;;;15.47;4.23;;;;;;;16.51;72.89;100516.22;5059273;28;20059;-72
2021/08/08 06:02:45;;;;;;;14.05;3.63;;;;;;;16.88;72.28;100525.91;5055489;28;20052;-70
2021/08/08 06:05:17;;;;;;;18.80;4.22;;;;;;;16.68;72.29;100521.41;5038850;28;20506;-71
2021/08/08 06:07:44;;;;;;;16.80;4.20;;;;;;;16.93;71.92;100529.59;5060440;28;20055;-70
2021/08/08 06:10:12;;;;;;;14.00;3.92;;;;;;;16.93;71.73;100535.16;5076170;28;20055;-71
2021/08/08 06:12:39;;;;;;;14.57;3.88;;;;;;;16.81;71.47;100542.44;5072133;28;20052;-71
2021/08/08 06:15:07;;;;;;;16.40;4.15;;;;;;;16.78;71.33;100534.00;5072288;28;20060;-70
2021/08/08 06:17:35;;;;;;;12.60;3.60;;;;;;;17.02;70.83;100535.75;5076893;28;20515;-70
2021/08/08 06:20:02;;;;;;;13.57;3.50;;;;;;;17.20;70.03;100535.03;5093642;28;20418;-71
2021/08/08 06:22:34;;;;;;;14.20;4.03;;;;;;;17.06;71.30;100537.47;5058922;28;20055;-70
2021/08/08 06:25:02;;;;;;;17.98;4.18;;;;;;;17.00;70.19;100541.69;5075704;28;20565;-71
2021/08/08 06:27:30;;;;;;;14.18;3.72;;;;;;;17.17;70.51;100544.13;5058412;28;20505;-70
2021/08/08 06:29:58;;;;;;;15.93;3.60;;;;;;;16.94;70.39;100548.72;5074973;28;20051;-74
2021/08/08 06:32:25;;;;;;;16.85;3.53;;;;;;;16.93;70.46;100558.22;5074801;28;20044;-74
2021/08/08 06:34:53;;;;;;;11.70;3.50;;;;;;;17.00;71.37;100558.38;5075611;28;20052;-71
2021/08/08 06:37:20;;;;;;;17.15;3.88;;;;;;;17.04;71.06;100559.28;5091996;28;20067;-71
2021/08/08 06:39:47;;;;;;;19.33;4.10;;;;;;;17.09;70.24;100570.16;5074738;28;20059;-71
2021/08/08 06:42:15;;;;;;;16.70;3.63;;;;;;;17.23;70.11;100562.13;5075135;28;20051;-71
2021/08/08 06:44:46;;;;;;;18.48;3.80;;;;;;;17.41;69.46;100556.97;5071840;28;20044;-71
2021/08/08 06:47:14;;;;;;;14.00;3.97;;;;;;;17.05;69.89;100554.53;5062512;28;20048;-70
2021/08/08 06:49:42;;;;;;;17.15;3.95;;;;;;;17.16;69.89;100552.81;5058280;28;20047;-71
2021/08/08 06:52:09;;;;;;;17.73;3.72;;;;;;;17.32;69.70;100553.59;5075175;28;20051;-70
2021/08/08 06:54:36;;;;;;;23.65;4.35;;;;;;;17.33;68.68;100558.78;5057989;28;20607;-71
2021/08/08 06:57:05;;;;;;;16.35;4.40;;;;;;;17.39;68.63;100562.09;5065629;28;20475;-70
2021/08/08 06:59:33;;;;;;;19.38;4.35;;;;;;;17.66;68.52;100563.97;5065680;28;20044;-70
2021/08/08 07:02:00;;;;;;;18.73;4.43;;;;;;;17.48;68.28;100571.09;5043432;28;20048;-71
2021/08/08 07:04:28;;;;;;;14.60;3.72;;;;;;;17.37;67.28;100573.63;5074652;28;20556;-71
2021/08/08 07:06:55;;;;;;;15.73;3.83;;;;;;;17.50;68.83;100566.81;5073370;28;20451;-71
2021/08/08 07:09:23;;;;;;;15.75;3.67;;;;;;;17.48;67.92;100574.72;5068147;28;20047;-70
2021/08/08 07:11:51;;;;;;;14.07;3.20;;;;;;;17.63;67.70;100578.59;5055430;28;20054;-71
2021/08/08 07:14:35;;;;;;;18.42;4.22;;;;;;;17.66;67.83;100578.69;5074371;28;20040;-71
2021/08/08 07:17:04;;;;;;;18.48;4.03;;;;;;;17.78;66.93;100581.34;5074975;28;20047;-71
2021/08/08 07:19:32;;;;;;;16.42;3.88;;;;;;;17.86;67.14;100574.75;5055195;28;20063;-71
2021/08/08 07:22:00;;;;;;;13.25;3.50;;;;;;;17.93;67.62;100574.91;5081251;28;20052;-71
2021/08/08 07:24:28;;;;;;;22.98;4.07;;;;;;;18.03;65.00;100581.09;5073084;28;20047;-71
2021/08/08 07:26:58;;;;;;;16.67;4.10;;;;;;;18.08;66.57;100589.16;5056903;28;20044;-71
2021/08/08 07:29:26;;;;;;;16.48;3.78;;;;;;;18.01;66.01;100584.22;5049078;28;20056;-71
2021/08/08 07:31:57;;;;;;;12.52;3.20;;;;;;;18.31;65.65;100590.00;5074388;28;20051;-72
2021/08/08 07:34:25;;;;;;;18.17;3.85;;;;;;;18.17;64.39;100584.94;5052348;28;20545;-72
2021/08/08 07:36:53;;;;;;;14.45;4.15;;;;;;;18.11;64.42;100591.19;5056698;28;20055;-71
2021/08/08 07:39:20;;;;;;;15.52;3.83;;;;;;;17.83;65.04;100595.00;5055992;28;20048;-71
2021/08/08 07:41:48;;;;;;;18.40;4.00;;;;;;;17.83;65.48;100606.16;5073281;28;20048;-71
2021/08/08 07:44:16;;;;;;;17.40;5.10;;;;;;;17.95;66.46;100597.66;5054776;28;20044;-71
2021/08/08 07:46:43;;;;;;;14.63;3.67;;;;;;;17.98;65.30;100605.28;5065958;28;20040;-71
2021/08/08 07:49:11;;;;;;;13.70;3.72;;;;;;;17.95;65.21;100600.44;5073895;28;20044;-71
2021/08/08 07:51:38;;;;;;;16.75;3.70;;;;;;;18.04;65.48;100605.81;5073020;28;20089;-71
2021/08/08 07:54:06;;;;;;;18.58;4.05;;;;;;;17.97;64.82;100611.22;5068502;28;20543;-71
2021/08/08 07:56:33;;;;;;;19.63;4.10;;;;;;;17.96;65.54;100617.94;5070828;28;20040;-69
2021/08/08 07:59:02;;;;;;;21.02;4.15;;;;;;;18.45;66.23;100616.22;5064227;28;20064;-68
2021/08/08 08:01:31;;;;;;;17.15;3.88;;;;;;;18.94;64.12;100619.16;5071014;28;20048;-66
2021/08/08 08:03:59;;;;;;;12.00;3.50;;;;;;;19.03;61.98;100622.50;5068455;28;20052;-68
2021/08/08 08:06:27;;;;;;;17.50;4.07;;;;;;;19.01;62.20;100619.28;5077342;28;20784;-68
2021/08/08 08:08:55;;;;;;;15.20;4.07;;;;;;;19.05;61.84;100617.34;5072731;28;20047;-69
2021/08/08 08:11:23;;;;;;;16.67;3.42;;;;;;;19.18;61.50;100615.19;5069329;28;20462;-69
2021/08/08 08:13:50;;;;;;;15.35;3.35;;;;;;;19.08;61.32;100622.19;5084232;28;20060;-67
2021/08/08 08:16:18;;;;;;;20.05;3.72;;;;;;;19.08;61.73;100622.19;5073994;28;20052;-67
2021/08/08 08:18:45;;;;;;;18.80;4.32;;;;;;;19.19;61.23;100634.34;5093023;28;20044;-68
2021/08/08 08:21:12;;;;;;;14.40;3.72;;;;;;;18.98;60.75;100629.22;5074596;28;20048;-68
2021/08/08 08:23:39;;;;;;;12.13;3.67;;;;;;;18.85;61.55;100636.13;5073462;28;20047;-68
2021/08/08 08:26:07;;;;;;;15.73;4.22;;;;;;;19.11;61.19;100637.41;5092914;28;20051;-68
2021/08/08 08:28:34;;;;;;;12.02;3.17;;;;;;;19.32;60.71;100637.78;5066129;28;20059;-67
2021/08/08 08:31:02;;;;;;;18.08;3.97;;;;;;;19.20;60.44;100646.31;5074758;28;20036;-68
2021/08/08 08:33:31;;;;;;;16.35;4.22;;;;;;;19.49;60.16;100654.81;5075538;28;20047;-68
2021/08/08 08:35:58;;;;;;;12.70;4.00;;;;;;;19.50;59.63;100655.63;5076167;28;20570;-70
2021/08/08 08:38:26;;;;;;;15.65;4.00;;;;;;;19.29;59.56;100649.66;5092380;28;20040;-69
2021/08/08 08:40:53;;;;;;;12.55;3.70;;;;;;;18.95;59.92;100657.06;5076357;28;20494;-69
2021/08/08 08:43:26;;;;;;;17.75;3.42;;;;;;;19.17;59.86;100652.66;5072131;28;20048;-67
2021/08/08 08:45:55;;;;;;;14.38;4.07;;;;;;;19.19;59.40;100656.69;5074407;28;20084;-70
2021/08/08 08:48:23;;;;;;;17.95;4.30;;;;;;;19.24;59.58;100661.16;5073305;28;20356;-68
2021/08/08 08:50:54;;;;;;;20.38;4.00;;;;;;;19.42;59.49;100662.28;5057374;28;20482;-67
2021/08/08 08:53:25;;;;;;;35.38;8.43;;;;;;;19.77;59.07;100658.06;5075217;28;20048;-68
2021/08/08 08:55:53;;;;;;;68.13;15.52;;;;;;;19.95;58.42;100647.94;5064003;28;20041;-69
2021/08/08 08:58:21;;;;;;;78.57;13.40;;;;;;;19.83;57.67;100650.97;5079053;28;20036;-68
2021/08/08 09:00:50;;;;;;;41.65;8.35;;;;;;;19.99;56.33;100660.00;5075686;28;20048;-67
2021/08/08 09:03:18;;;;;;;35.28;7.93;;;;;;;19.96;56.83;100654.34;5076233;28;20056;-68
2021/08/08 09:05:46;;;;;;;18.83;5.18;;;;;;;19.90;56.00;100659.47;5076274;28;20672;-68
2021/08/08 09:08:14;;;;;;;32.92;6.32;;;;;;;20.13;55.47;100660.19;5069446;28;20067;-69
2021/08/08 09:10:42;;;;;;;23.45;4.53;;;;;;;19.54;55.12;100668.50;5067819;28;20415;-69
2021/08/08 09:13:10;;;;;;;18.40;4.65;;;;;;;19.65;55.60;100663.06;5076521;28;20060;-67
2021/08/08 09:15:43;;;;;;;16.10;5.53;;;;;;;20.10;54.71;100658.13;5074245;28;20051;-66
2021/08/08 09:18:24;;;;;;;23.92;4.28;;;;;;;20.22;53.72;100668.34;5075457;28;20040;-67
2021/08/08 09:21:18;;;;;;;15.60;4.53;;;;;;;20.21;54.56;100657.53;5090085;28;20151;-67
2021/08/08 09:23:57;;;;;;;18.48;3.67;;;;;;;20.26;53.44;100666.38;5094103;28;20055;-67
2021/08/08 09:26:37;;;;;;;16.77;4.80;;;;;;;20.16;53.57;100658.66;5075879;28;20044;-67
2021/08/08 09:29:12;;;;;;;15.50;3.90;;;;;;;20.51;53.08;100664.72;5064518;28;20052;-67
2021/08/08 09:31:46;;;;;;;11.65;3.38;;;;;;;20.47;51.75;100657.47;5076297;28;20044;-67
2021/08/08 09:34:25;;;;;;;11.68;3.92;;;;;;;20.47;52.49;100663.06;5055998;28;20071;-67
2021/08/08 09:36:55;;;;;;;18.05;4.65;;;;;;;21.09;53.80;100664.97;5092132;28;20059;-50
2021/08/08 09:39:45;;;;;;;17.27;4.37;;;;;;;22.20;50.62;100660.63;5075856;28;20056;-43
2021/08/08 09:42:13;;;;;;;13.95;4.35;;;;;;;22.59;49.20;100661.66;5076526;28;20047;-47
2021/08/08 09:44:51;;;;;;;13.23;3.75;;;;;;;22.84;48.02;100662.50;5093797;28;20052;-42
2021/08/08 09:47:19;;;;;;;11.38;3.70;;;;;;;22.98;46.88;100668.16;5092281;28;20526;-47
2021/08/08 09:50:02;;;;;;;9.52;3.10;;;;;;;23.02;47.33;100673.78;5093981;28;20059;-46
2021/08/08 09:52:29;;;;;;;12.40;3.47;;;;;;;23.05;46.87;100665.38;5093656;28;20055;-45
2021/08/08 09:54:57;;;;;;;11.40;3.13;;;;;;;23.14;46.66;100674.22;5094048;28;20040;-47
2021/08/08 09:57:24;;;;;;;11.48;3.20;;;;;;;23.17;46.17;100673.41;5093305;28;20047;-46
2021/08/08 09:59:52;;;;;;;9.77;3.45;;;;;;;23.21;46.28;100674.22;5093411;28;20509;-47
2021/08/08 10:02:21;;;;;;;9.52;3.00;;;;;;;23.25;45.91;100672.25;5093787;28;20040;-54
2021/08/08 10:04:49;;;;;;;11.75;3.10;;;;;;;23.28;45.98;100673.47;5092544;28;20067;-51
2021/08/08 10:07:17;;;;;;;10.32;3.20;;;;;;;23.30;45.65;100669.06;5093684;28;20111;-52
2021/08/08 10:09:49;;;;;;;10.85;2.78;;;;;;;23.32;45.58;100674.28;5093673;28;20048;-55
2021/08/08 10:12:23;;;;;;;10.75;3.05;;;;;;;23.31;45.44;100683.91;5067097;28;20495;-52
2021/08/08 10:14:51;;;;;;;11.30;3.50;;;;;;;23.32;45.37;100693.97;5091260;28;20050;-50
2021/08/08 10:17:18;;;;;;;10.82;3.20;;;;;;;23.16;45.93;100694.31;5091815;28;20154;-61
2021/08/08 10:19:50;;;;;;;11.75;3.40;;;;;;;21.65;45.87;100692.69;5051962;28;20075;-54
2021/08/08 10:22:18;;;;;;;14.65;3.65;;;;;;;21.24;47.42;100697.53;5074909;28;20523;-56
2021/08/08 10:24:47;;;;;;;13.25;3.22;;;;;;;20.88;48.46;100693.53;5075238;28;20414;-55
2021/08/08 10:27:21;;;;;;;13.32;3.42;;;;;;;20.74;47.88;100696.19;5073258;28;20051;-55
2021/08/08 10:29:54;;;;;;;14.32;3.55;;;;;;;20.53;48.69;100697.91;5076087;28;20040;-53
2021/08/08 10:32:25;;;;;;;12.00;3.03;;;;;;;20.77;48.24;100695.41;5092516;28;20048;-52
2021/08/08 10:34:53;;;;;;;9.98;3.28;;;;;;;21.18;49.53;100693.50;5074861;28;20077;-52
2021/08/08 10:37:22;;;;;;;11.32;3.47;;;;;;;21.50;48.89;100691.78;5075405;28;20051;-51
2021/08/08 10:39:50;;;;;;;10.90;3.50;;;;;;;21.39;46.67;100695.69;5092386;28;20055;-56
2021/08/08 10:42:19;;;;;;;11.80;3.63;;;;;;;20.79;49.74;100700.63;5092301;28;20055;-52
2021/08/08 10:44:54;;;;;;;9.45;3.25;;;;;;;20.38;51.84;100696.91;5093110;28;20048;-52
2021/08/08 10:47:28;;;;;;;10.70;3.22;;;;;;;20.36;51.07;100695.69;5093007;28;20383;-51
2021/08/08 10:50:07;;;;;;;8.82;3.03;;;;;;;20.80;51.45;100697.44;5091931;28;20040;-51
2021/08/08 10:52:45;;;;;;;10.95;3.20;;;;;;;20.89;50.03;100697.13;5091609;28;20048;-51
2021/08/08 10:55:23;;;;;;;10.25;3.53;;;;;;;20.29;50.79;100692.78;5091970;28;20063;-49
2021/08/08 10:57:51;;;;;;;14.45;3.60;;;;;;;20.04;51.46;100700.81;5073626;28;20423;-50
2021/08/08 11:00:19;;;;;;;11.82;3.05;;;;;;;20.58;50.23;100687.19;5090111;28;20059;-50
2021/08/08 11:02:47;;;;;;;12.02;3.70;;;;;;;21.13;49.08;100672.22;5074228;28;20048;-49
2021/08/08 11:05:18;;;;;;;11.55;3.17;;;;;;;21.00;49.38;100679.31;5092984;28;20052;-52
2021/08/08 11:07:47;;;;;;;11.00;3.35;;;;;;;21.55;47.29;100680.19;5093103;28;20048;-50
2021/08/08 11:10:27;;;;;;;11.20;3.33;;;;;;;21.61;45.96;100680.66;5092493;28;20052;-50
2021/08/08 11:12:55;;;;;;;12.57;3.55;;;;;;;21.75;46.64;100684.38;5092166;28;20290;-51
2021/08/08 11:15:33;;;;;;;11.07;2.78;;;;;;;21.98;48.20;100673.75;5092189;28;20363;-52
2021/08/08 11:18:01;;;;;;;12.98;3.25;;;;;;;22.16;46.92;100671.03;5092525;28;20044;-52
2021/08/08 11:20:29;;;;;;;10.45;3.22;;;;;;;22.13;46.24;100669.81;5092426;28;20058;-53
2021/08/08 11:22:58;;;;;;;8.82;2.85;;;;;;;21.93;45.68;100676.13;5073856;28;20060;-53
2021/08/08 11:25:26;;;;;;;11.65;3.53;;;;;;;22.26;44.34;100676.69;5092593;28;20137;-49
2021/08/08 11:27:54;;;;;;;12.43;3.17;;;;;;;22.05;45.74;100671.00;5074454;28;20518;-51